Terminal Aerodrome Forecast
Issued by NWS Wichita, KS

Home | Current Version | Previous Version | Text Only | Print | Product List | Glossary Off
Versions: 1 2 3 4 5 6 7 8 9 10 11 12 13 14 15 16 17 18 19 20 21 22

000
FTUS43 KICT 031731
TAFICT
TAF
KICT 031731Z 0318/0418 27015KT P6SM SCT030 OVC250
     FM032000 35017G25KT P6SM SCT030 OVC250
     FM040800 02019G26KT P6SM OVC025
     FM041100 02018G22KT 5SM -SN SCT006 OVC025=

USA.gov is the U.S. government's official web portal to all federal, state and local government web resources and services.